Weather at General Roberto Fierro Villalobos International Airport

Public forecast

Using degrees Celsius for public forecast. Weather courtesy of forecast.io.

Current aviation weather report (METAR) for General Roberto Fierro Villalobos International Airport

Retrieved 2020/12/01 01:46 UTC (33 minutes ago):

MMCU 010146Z 17004KT 10SM SKC 08/M03 A3027

Aviation forecast (TAF) for General Roberto Fierro Villalobos International Airport

Forecast is more than 6 hours old.

Retrieved 2020/11/30 18:46 UTC (8 hours ago):

TAF MMCU 301639Z 3018/0118 06012KT P6SM SKC FM010300 00000KT P6SM SKC